Thunder radar more information blitzortung!


Radar de pluja more information rain snow radar


Visita la nostra xarxa de llocs de meteo:

Template documentation
and downloads

And another site



No particular awareness of the weather is required.    There are no Weather-warnings

Pagina Historial Weather Underground text

Diari Resum Juny 24, 2017 Unitats:  Tant    Imperial   Mètric
« Previous Dia
SegĂźent Dia »
Diari Setmana Mensual Anual Personalitzada
  Maxima: Minima: Media:
Temperatura: 93.4 °F /  34.1 °C 67.8 °F /  19.9 °C 82 °F /  27.8 °C
Punt de rosada: 67.5 °F /  19.7 °C 57.9 °F /  14.4 °C 63.5 °F /  17.5 °C
Humitat: 75 % 39 % 55 %
Wind Speed: 12.7 mph /  20.4 km/h - 5 mph /  8 km/h
RĂ fegues de vent: 12.7 mph /  20.4 km/h - -
Vent:- - SSW
Pression baro: 30.1 in /  1018.8 hPa 29.9 in /  1012.8 hPa -
Precipitacions: 0 in /  0.0 mm    
Historical Graphs
 
 
Dades de taula per Juny 24, 2017
Temps Temperatura Punt de rosada Pression baro Vent Wind Speed RĂ fegues de vent Humitat Rainfall Rate (Hourly)
00:02 75.2 °F /  24.0 °C 57.9 °F /  14.4 °C 30.1 in /  1017.8 hPa WSW 2.3 mph /  3.7 km/h 2.6 mph /  4.2 km/h 55 % 0 in /  0.0 mm
00:05 70 °F /  21.1 °C 60.4 °F /  15.8 °C 30 in /  1016.8 hPa Calm     72 % 0 in /  0.0 mm
00:07 75.2 °F /  24.0 °C 57.9 °F /  14.4 °C 30.1 in /  1017.8 hPa WSW 2.3 mph /  3.7 km/h 2.3 mph /  3.7 km/h 55 % 0 in /  0.0 mm
00:12 75 °F /  23.9 °C 58.3 °F /  14.6 °C 30.1 in /  1017.8 hPa SW 3.1 mph /  5.0 km/h 3.1 mph /  5.0 km/h 56 % 0 in /  0.0 mm
00:15 69.4 °F /  20.8 °C 59.5 °F /  15.3 °C 30 in /  1016.8 hPa Calm   1 mph /  1.6 km/h 71 % 0 in /  0.0 mm
00:17 74.8 °F /  23.8 °C 58.6 °F /  14.8 °C 30.1 in /  1017.8 hPa SW 3.5 mph /  5.6 km/h 3.5 mph /  5.6 km/h 57 % 0 in /  0.0 mm
00:25 69.3 °F /  20.7 °C 59.5 °F /  15.3 °C 30 in /  1015.8 hPa Calm   1 mph /  1.6 km/h 71 % 0 in /  0.0 mm
00:35 68.9 °F /  20.5 °C 59.5 °F /  15.3 °C 30 in /  1016.8 hPa Calm   1 mph /  1.6 km/h 72 % 0 in /  0.0 mm
00:45 68.9 °F /  20.5 °C 59.5 °F /  15.3 °C 30 in /  1016.8 hPa Calm   1 mph /  1.6 km/h 72 % 0 in /  0.0 mm
00:55 68.9 °F /  20.5 °C 59.5 °F /  15.3 °C 30 in /  1016.8 hPa NE 1 mph /  1.6 km/h 2 mph /  3.2 km/h 72 % 0 in /  0.0 mm
01:05 68.7 °F /  20.4 °C 59.7 °F /  15.4 °C 30 in /  1016.8 hPa Calm   1 mph /  1.6 km/h 73 % 0 in /  0.0 mm
01:15 68.4 °F /  20.2 °C 59.4 °F /  15.2 °C 30 in /  1016.8 hPa Calm     73 % 0 in /  0.0 mm
01:25 68.2 °F /  20.1 °C 59.5 °F /  15.3 °C 30 in /  1016.8 hPa Calm     74 % 0 in /  0.0 mm
01:35 68 °F /  20.0 °C 59.4 °F /  15.2 °C 30 in /  1016.8 hPa Calm     74 % 0 in /  0.0 mm
01:45 67.8 °F /  19.9 °C 59.5 °F /  15.3 °C 30 in /  1016.8 hPa Calm   1 mph /  1.6 km/h 75 % 0 in /  0.0 mm
01:55 68 °F /  20.0 °C 59.7 °F /  15.4 °C 30 in /  1016.8 hPa Calm     75 % 0 in /  0.0 mm
02:05 68.7 °F /  20.4 °C 60.4 °F /  15.8 °C 30 in /  1016.8 hPa SSW 3 mph /  4.8 km/h 3 mph /  4.8 km/h 75 % 0 in /  0.0 mm
02:15 68.9 °F /  20.5 °C 60.3 °F /  15.7 °C 30 in /  1016.8 hPa East 1 mph /  1.6 km/h 1 mph /  1.6 km/h 74 % 0 in /  0.0 mm
02:25 69.4 °F /  20.8 °C 60.8 °F /  16.0 °C 30.1 in /  1017.8 hPa East 2 mph /  3.2 km/h 2 mph /  3.2 km/h 74 % 0 in /  0.0 mm
02:35 69.6 °F /  20.9 °C 60.6 °F /  15.9 °C 30.1 in /  1017.8 hPa East 1 mph /  1.6 km/h 2 mph /  3.2 km/h 73 % 0 in /  0.0 mm
02:45 70.3 °F /  21.3 °C 61.3 °F /  16.3 °C 30.1 in /  1017.8 hPa Calm   2 mph /  3.2 km/h 73 % 0 in /  0.0 mm
02:55 69.6 °F /  20.9 °C 60.3 °F /  15.7 °C 30.1 in /  1018.8 hPa WSW 2 mph /  3.2 km/h 2 mph /  3.2 km/h 72 % 0 in /  0.0 mm
03:05 70.9 °F /  21.6 °C 61.3 °F /  16.3 °C 30.1 in /  1017.8 hPa SW 1 mph /  1.6 km/h 1 mph /  1.6 km/h 72 % 0 in /  0.0 mm
03:15 72.3 °F /  22.4 °C 62.1 °F /  16.7 °C 30.1 in /  1017.8 hPa Calm   1 mph /  1.6 km/h 70 % 0 in /  0.0 mm
03:25 72.1 °F /  22.3 °C 61.3 °F /  16.3 °C 30.1 in /  1017.8 hPa Calm   2 mph /  3.2 km/h 69 % 0 in /  0.0 mm
03:35 73.8 °F /  23.2 °C 62.4 °F /  16.9 °C 30.1 in /  1017.8 hPa WSW 1 mph /  1.6 km/h 1 mph /  1.6 km/h 68 % 0 in /  0.0 mm
03:45 74.1 °F /  23.4 °C 62.1 °F /  16.7 °C 30.1 in /  1017.8 hPa West 2 mph /  3.2 km/h 2 mph /  3.2 km/h 66 % 0 in /  0.0 mm
03:55 74.5 °F /  23.6 °C 62.4 °F /  16.9 °C 30.1 in /  1017.8 hPa West 1 mph /  1.6 km/h 1 mph /  1.6 km/h 66 % 0 in /  0.0 mm
04:05 76.1 °F /  24.5 °C 62.6 °F /  17.0 °C 30.1 in /  1018.8 hPa NW 2 mph /  3.2 km/h 3 mph /  4.8 km/h 63 % 0 in /  0.0 mm
04:15 76.1 °F /  24.5 °C 62.6 °F /  17.0 °C 30.1 in /  1018.8 hPa NE 2 mph /  3.2 km/h 2 mph /  3.2 km/h 63 % 0 in /  0.0 mm
04:25 76.6 °F /  24.8 °C 62.2 °F /  16.8 °C 30.1 in /  1017.8 hPa NE 1 mph /  1.6 km/h 4 mph /  6.4 km/h 61 % 0 in /  0.0 mm
04:35 77.2 °F /  25.1 °C 61.3 °F /  16.3 °C 30.1 in /  1017.8 hPa ENE 1 mph /  1.6 km/h 4 mph /  6.4 km/h 58 % 0 in /  0.0 mm
04:45 78.3 °F /  25.7 °C 62.2 °F /  16.8 °C 30.1 in /  1017.8 hPa ESE 1 mph /  1.6 km/h 3 mph /  4.8 km/h 58 % 0 in /  0.0 mm
04:55 78.8 °F /  26.0 °C 61.3 °F /  16.3 °C 30.1 in /  1017.8 hPa SE 1 mph /  1.6 km/h 4 mph /  6.4 km/h 55 % 0 in /  0.0 mm
10:06 80.1 °F /  26.7 °C 61.9 °F /  16.6 °C 30.1 in /  1017.8 hPa NNE 1.2 mph /  1.9 km/h 1.2 mph /  1.9 km/h 54 % 0 in /  0.0 mm
10:11 81 °F /  27.2 °C 62.2 °F /  16.8 °C 30.1 in /  1017.8 hPa NE 2.4 mph /  3.9 km/h 2.4 mph /  3.9 km/h 53 % 0 in /  0.0 mm
10:16 80.4 °F /  26.9 °C 61.7 °F /  16.5 °C 30.1 in /  1017.8 hPa ENE 3.5 mph /  5.6 km/h 3.5 mph /  5.6 km/h 53 % 0 in /  0.0 mm
10:21 80.8 °F /  27.1 °C 61 °F /  16.1 °C 30.1 in /  1017.8 hPa ENE 3.5 mph /  5.6 km/h 3.5 mph /  5.6 km/h 51 % 0 in /  0.0 mm
10:26 81.5 °F /  27.5 °C 61.5 °F /  16.4 °C 30.1 in /  1017.8 hPa WNW 2.3 mph /  3.7 km/h 2.3 mph /  3.7 km/h 51 % 0 in /  0.0 mm
10:31 81.7 °F /  27.6 °C 61.9 °F /  16.6 °C 30.1 in /  1017.8 hPa ESE 2.3 mph /  3.7 km/h 2.3 mph /  3.7 km/h 51 % 0 in /  0.0 mm
10:36 81.3 °F /  27.4 °C 60.3 °F /  15.7 °C 30.1 in /  1017.8 hPa East 2.3 mph /  3.7 km/h 2.3 mph /  3.7 km/h 49 % 0 in /  0.0 mm
10:41 81.9 °F /  27.7 °C 61.3 °F /  16.3 °C 30.1 in /  1017.8 hPa East 3.5 mph /  5.6 km/h 3.5 mph /  5.6 km/h 50 % 0 in /  0.0 mm
10:46 81.7 °F /  27.6 °C 60.6 °F /  15.9 °C 30 in /  1016.8 hPa NE 3.5 mph /  5.6 km/h 3.5 mph /  5.6 km/h 49 % 0 in /  0.0 mm
10:51 82.2 °F /  27.9 °C 61.7 °F /  16.5 °C 30 in /  1016.8 hPa WSW 2.3 mph /  3.7 km/h 2.3 mph /  3.7 km/h 50 % 0 in /  0.0 mm
10:56 82.8 °F /  28.2 °C 61.5 °F /  16.4 °C 30 in /  1016.8 hPa ESE 6.9 mph /  11.1 km/h 6.9 mph /  11.1 km/h 49 % 0 in /  0.0 mm
11:01 82.2 °F /  27.9 °C 61.2 °F /  16.2 °C 30 in /  1016.8 hPa ENE 5.4 mph /  8.7 km/h 5.4 mph /  8.7 km/h 49 % 0 in /  0.0 mm
11:06 82 °F /  27.8 °C 60.4 °F /  15.8 °C 30 in /  1016.8 hPa ESE 2.6 mph /  4.2 km/h 2.6 mph /  4.2 km/h 48 % 0 in /  0.0 mm
11:11 83.3 °F /  28.5 °C 61.5 °F /  16.4 °C 30 in /  1016.8 hPa SSE 3.5 mph /  5.6 km/h 3.5 mph /  5.6 km/h 48 % 0 in /  0.0 mm
11:16 84 °F /  28.9 °C 61.5 °F /  16.4 °C 30 in /  1016.8 hPa ENE 4.6 mph /  7.4 km/h 4.6 mph /  7.4 km/h 47 % 0 in /  0.0 mm
11:21 83.3 °F /  28.5 °C 61 °F /  16.1 °C 30 in /  1016.8 hPa SSE 6.9 mph /  11.1 km/h 6.9 mph /  11.1 km/h 47 % 0 in /  0.0 mm
11:26 83.3 °F /  28.5 °C 61 °F /  16.1 °C 30 in /  1016.8 hPa WSW 5.8 mph /  9.3 km/h 5.8 mph /  9.3 km/h 47 % 0 in /  0.0 mm
11:31 83.5 °F /  28.6 °C 61.2 °F /  16.2 °C 30 in /  1016.8 hPa NNE 4.6 mph /  7.4 km/h 4.6 mph /  7.4 km/h 47 % 0 in /  0.0 mm
11:36 84 °F /  28.9 °C 61.5 °F /  16.4 °C 30 in /  1016.8 hPa SSE 5.8 mph /  9.3 km/h 5.8 mph /  9.3 km/h 47 % 0 in /  0.0 mm
11:41 84 °F /  28.9 °C 61.5 °F /  16.4 °C 30 in /  1016.8 hPa East 3.5 mph /  5.6 km/h 3.5 mph /  5.6 km/h 47 % 0 in /  0.0 mm
11:46 84.2 °F /  29.0 °C 61.9 °F /  16.6 °C 30 in /  1016.8 hPa NNW 4.6 mph /  7.4 km/h 4.6 mph /  7.4 km/h 47 % 0 in /  0.0 mm
11:51 84.2 °F /  29.0 °C 62.4 °F /  16.9 °C 30 in /  1016.8 hPa NNE 5.9 mph /  9.5 km/h 5.9 mph /  9.5 km/h 48 % 0 in /  0.0 mm
11:56 84.4 °F /  29.1 °C 63.1 °F /  17.3 °C 30 in /  1016.8 hPa SSW 4 mph /  6.4 km/h 4 mph /  6.4 km/h 49 % 0 in /  0.0 mm
12:01 84.9 °F /  29.4 °C 63.7 °F /  17.6 °C 30 in /  1016.8 hPa East 8.1 mph /  13.0 km/h 8.1 mph /  13.0 km/h 49 % 0 in /  0.0 mm
12:06 84.7 °F /  29.3 °C 64 °F /  17.8 °C 30 in /  1016.8 hPa SE 2.6 mph /  4.2 km/h 2.6 mph /  4.2 km/h 50 % 0 in /  0.0 mm
12:11 83.8 °F /  28.8 °C 64.2 °F /  17.9 °C 30 in /  1016.8 hPa ESE 9.2 mph /  14.8 km/h 9.2 mph /  14.8 km/h 52 % 0 in /  0.0 mm
12:16 84 °F /  28.9 °C 64.9 °F /  18.3 °C 30 in /  1016.8 hPa South 10.4 mph /  16.7 km/h 10.4 mph /  16.7 km/h 53 % 0 in /  0.0 mm
12:21 84 °F /  28.9 °C 65.7 °F /  18.7 °C 30 in /  1016.8 hPa ESE 9.8 mph /  15.8 km/h 9.8 mph /  15.8 km/h 54 % 0 in /  0.0 mm
12:26 84.2 °F /  29.0 °C 65.1 °F /  18.4 °C 30 in /  1016.8 hPa ESE 4.6 mph /  7.4 km/h 4.6 mph /  7.4 km/h 53 % 0 in /  0.0 mm
12:31 84.4 °F /  29.1 °C 65.5 °F /  18.6 °C 30 in /  1015.8 hPa ESE 8.1 mph /  13.0 km/h 8.1 mph /  13.0 km/h 53 % 0 in /  0.0 mm
12:36 84.2 °F /  29.0 °C 65.8 °F /  18.8 °C 30 in /  1015.8 hPa East 5.8 mph /  9.3 km/h 5.8 mph /  9.3 km/h 54 % 0 in /  0.0 mm
12:41 83.8 °F /  28.8 °C 66.6 °F /  19.2 °C 30 in /  1015.8 hPa ENE 4 mph /  6.4 km/h 4 mph /  6.4 km/h 56 % 0 in /  0.0 mm
12:46 83.5 °F /  28.6 °C 66 °F /  18.9 °C 30 in /  1016.8 hPa ENE 8.1 mph /  13.0 km/h 8.1 mph /  13.0 km/h 56 % 0 in /  0.0 mm
12:51 83.5 °F /  28.6 °C 66 °F /  18.9 °C 30 in /  1016.8 hPa ESE 6.9 mph /  11.1 km/h 6.9 mph /  11.1 km/h 56 % 0 in /  0.0 mm
12:56 83.8 °F /  28.8 °C 66.6 °F /  19.2 °C 30 in /  1016.8 hPa ESE 6.9 mph /  11.1 km/h 6.9 mph /  11.1 km/h 56 % 0 in /  0.0 mm
13:01 83.8 °F /  28.8 °C 66.6 °F /  19.2 °C 30 in /  1015.8 hPa North 3.5 mph /  5.6 km/h 3.5 mph /  5.6 km/h 56 % 0 in /  0.0 mm
13:06 84.4 °F /  29.1 °C 66.4 °F /  19.1 °C 30 in /  1015.8 hPa East 8.1 mph /  13.0 km/h 8.1 mph /  13.0 km/h 55 % 0 in /  0.0 mm
13:11 84.9 °F /  29.4 °C 66.4 °F /  19.1 °C 30 in /  1015.8 hPa ENE 5.8 mph /  9.3 km/h 5.8 mph /  9.3 km/h 54 % 0 in /  0.0 mm
13:16 85.5 °F /  29.7 °C 66.9 °F /  19.4 °C 30 in /  1015.8 hPa ESE 6.9 mph /  11.1 km/h 6.9 mph /  11.1 km/h 54 % 0 in /  0.0 mm
13:21 87.3 °F /  30.7 °C 67.5 °F /  19.7 °C 30 in /  1015.8 hPa ESE 6.9 mph /  11.1 km/h 6.9 mph /  11.1 km/h 52 % 0 in /  0.0 mm
13:26 88.5 °F /  31.4 °C 66.9 °F /  19.4 °C 30 in /  1015.8 hPa SW 5.8 mph /  9.3 km/h 5.8 mph /  9.3 km/h 49 % 0 in /  0.0 mm
13:31 88.7 °F /  31.5 °C 67.1 °F /  19.5 °C 30 in /  1015.8 hPa SW 6.9 mph /  11.1 km/h 6.9 mph /  11.1 km/h 49 % 0 in /  0.0 mm
13:36 88.5 °F /  31.4 °C 66.4 °F /  19.1 °C 30 in /  1015.8 hPa SW 7.4 mph /  11.9 km/h 7.4 mph /  11.9 km/h 48 % 0 in /  0.0 mm
13:41 89.2 °F /  31.8 °C 66.4 °F /  19.1 °C 30 in /  1015.8 hPa SW 6.7 mph /  10.8 km/h 6.7 mph /  10.8 km/h 47 % 0 in /  0.0 mm
13:46 89.6 °F /  32.0 °C 66 °F /  18.9 °C 30 in /  1015.8 hPa SW 6.9 mph /  11.1 km/h 6.9 mph /  11.1 km/h 46 % 0 in /  0.0 mm
13:51 88 °F /  31.1 °C 64 °F /  17.8 °C 30 in /  1015.8 hPa SW 9.2 mph /  14.8 km/h 9.2 mph /  14.8 km/h 45 % 0 in /  0.0 mm
13:56 88.9 °F /  31.6 °C 64.8 °F /  18.2 °C 30 in /  1015.8 hPa SW 5.8 mph /  9.3 km/h 5.8 mph /  9.3 km/h 45 % 0 in /  0.0 mm
14:01 88.5 °F /  31.4 °C 64.6 °F /  18.1 °C 30 in /  1015.8 hPa WSW 5.8 mph /  9.3 km/h 5.8 mph /  9.3 km/h 45 % 0 in /  0.0 mm
14:06 89.4 °F /  31.9 °C 65.3 °F /  18.5 °C 30 in /  1015.8 hPa SSW 5.8 mph /  9.3 km/h 5.8 mph /  9.3 km/h 45 % 0 in /  0.0 mm
14:11 90 °F /  32.2 °C 65.1 °F /  18.4 °C 30 in /  1015.8 hPa South 4.6 mph /  7.4 km/h 4.6 mph /  7.4 km/h 44 % 0 in /  0.0 mm
14:16 90 °F /  32.2 °C 65.1 °F /  18.4 °C 30 in /  1015.8 hPa SSW 6.9 mph /  11.1 km/h 6.9 mph /  11.1 km/h 44 % 0 in /  0.0 mm
14:21 90.3 °F /  32.4 °C 65.5 °F /  18.6 °C 30 in /  1015.8 hPa West 5.8 mph /  9.3 km/h 5.8 mph /  9.3 km/h 44 % 0 in /  0.0 mm
14:26 89.6 °F /  32.0 °C 64 °F /  17.8 °C 30 in /  1015.8 hPa West 9.2 mph /  14.8 km/h 9.2 mph /  14.8 km/h 43 % 0 in /  0.0 mm
14:31 90.1 °F /  32.3 °C 64.6 °F /  18.1 °C 30 in /  1015.8 hPa SW 7.6 mph /  12.2 km/h 7.6 mph /  12.2 km/h 43 % 0 in /  0.0 mm
14:36 89.6 °F /  32.0 °C 64 °F /  17.8 °C 30 in /  1015.8 hPa South 6.9 mph /  11.1 km/h 6.9 mph /  11.1 km/h 43 % 0 in /  0.0 mm
14:41 90.1 °F /  32.3 °C 64.6 °F /  18.1 °C 30 in /  1015.8 hPa SW 5.8 mph /  9.3 km/h 5.8 mph /  9.3 km/h 43 % 0 in /  0.0 mm
14:46 91.2 °F /  32.9 °C 65.7 °F /  18.7 °C 30 in /  1014.8 hPa SW 7.8 mph /  12.6 km/h 7.8 mph /  12.6 km/h 43 % 0 in /  0.0 mm
14:51 90.1 °F /  32.3 °C 64.6 °F /  18.1 °C 30 in /  1014.8 hPa SW 7.8 mph /  12.6 km/h 7.8 mph /  12.6 km/h 43 % 0 in /  0.0 mm
14:56 90.7 °F /  32.6 °C 65.1 °F /  18.4 °C 30 in /  1014.8 hPa West 4.6 mph /  7.4 km/h 4.6 mph /  7.4 km/h 43 % 0 in /  0.0 mm
15:01 91 °F /  32.8 °C 65.5 °F /  18.6 °C 30 in /  1014.8 hPa SSW 6.9 mph /  11.1 km/h 6.9 mph /  11.1 km/h 43 % 0 in /  0.0 mm
15:06 90 °F /  32.2 °C 64.6 °F /  18.1 °C 30 in /  1014.8 hPa West 8.1 mph /  13.0 km/h 8.1 mph /  13.0 km/h 43 % 0 in /  0.0 mm
15:11 90.1 °F /  32.3 °C 64 °F /  17.8 °C 30 in /  1014.8 hPa SSE 3.5 mph /  5.6 km/h 3.5 mph /  5.6 km/h 42 % 0 in /  0.0 mm
15:16 91.6 °F /  33.1 °C 65.1 °F /  18.4 °C 30 in /  1014.8 hPa South 4.6 mph /  7.4 km/h 4.6 mph /  7.4 km/h 42 % 0 in /  0.0 mm
15:21 92.3 °F /  33.5 °C 65.1 °F /  18.4 °C 30 in /  1014.8 hPa SE 2.3 mph /  3.7 km/h 2.3 mph /  3.7 km/h 41 % 0 in /  0.0 mm
15:26 92.7 °F /  33.7 °C 65.5 °F /  18.6 °C 30 in /  1014.8 hPa SW 6 mph /  9.7 km/h 6 mph /  9.7 km/h 41 % 0 in /  0.0 mm
15:31 92.1 °F /  33.4 °C 64.2 °F /  17.9 °C 29.9 in /  1013.8 hPa West 8.1 mph /  13.0 km/h 8.1 mph /  13.0 km/h 40 % 0 in /  0.0 mm
15:36 92.8 °F /  33.8 °C 64.9 °F /  18.3 °C 29.9 in /  1013.8 hPa South 5.8 mph /  9.3 km/h 5.8 mph /  9.3 km/h 40 % 0 in /  0.0 mm
15:41 93.4 °F /  34.1 °C 65.5 °F /  18.6 °C 29.9 in /  1013.8 hPa SSW 4.6 mph /  7.4 km/h 4.6 mph /  7.4 km/h 40 % 0 in /  0.0 mm
15:46 92.7 °F /  33.7 °C 64.8 °F /  18.2 °C 29.9 in /  1013.8 hPa South 5.8 mph /  9.3 km/h 5.8 mph /  9.3 km/h 40 % 0 in /  0.0 mm
15:51 92.1 °F /  33.4 °C 63.7 °F /  17.6 °C 29.9 in /  1013.8 hPa South 4.6 mph /  7.4 km/h 4.6 mph /  7.4 km/h 39 % 0 in /  0.0 mm
15:56 92.8 °F /  33.8 °C 64.9 °F /  18.3 °C 29.9 in /  1013.8 hPa WSW 4.6 mph /  7.4 km/h 4.6 mph /  7.4 km/h 40 % 0 in /  0.0 mm
16:01 93.4 °F /  34.1 °C 65.5 °F /  18.6 °C 29.9 in /  1013.8 hPa WSW 5.9 mph /  9.5 km/h 5.9 mph /  9.5 km/h 40 % 0 in /  0.0 mm
16:06 91.8 °F /  33.2 °C 64 °F /  17.8 °C 29.9 in /  1013.8 hPa West 9.7 mph /  15.6 km/h 9.7 mph /  15.6 km/h 40 % 0 in /  0.0 mm
16:11 91.2 °F /  32.9 °C 64.2 °F /  17.9 °C 29.9 in /  1013.8 hPa SW 5.8 mph /  9.3 km/h 5.8 mph /  9.3 km/h 41 % 0 in /  0.0 mm
16:16 91.9 °F /  33.3 °C 64.2 °F /  17.9 °C 29.9 in /  1013.8 hPa South 6.2 mph /  10.0 km/h 6.2 mph /  10.0 km/h 40 % 0 in /  0.0 mm
16:17 92.3 °F /  33.5 °C 64.6 °F /  18.1 °C 29.9 in /  1013.8 hPa South 6.2 mph /  10.0 km/h 6.2 mph /  10.0 km/h 40 % 0 in /  0.0 mm
16:22 91.9 °F /  33.3 °C 64.9 °F /  18.3 °C 29.9 in /  1013.8 hPa SW 11.5 mph /  18.5 km/h 11.5 mph /  18.5 km/h 41 % 0 in /  0.0 mm
16:27 91.6 °F /  33.1 °C 65.1 °F /  18.4 °C 29.9 in /  1013.8 hPa SSW 8.1 mph /  13.0 km/h 8.1 mph /  13.0 km/h 42 % 0 in /  0.0 mm
16:32 90.9 °F /  32.7 °C 65.3 °F /  18.5 °C 29.9 in /  1013.8 hPa SW 6.9 mph /  11.1 km/h 6.9 mph /  11.1 km/h 43 % 0 in /  0.0 mm
16:37 89.6 °F /  32.0 °C 64 °F /  17.8 °C 29.9 in /  1013.8 hPa WSW 8.1 mph /  13.0 km/h 8.1 mph /  13.0 km/h 43 % 0 in /  0.0 mm
16:40 79.5 °F /  26.4 °C 63.3 °F /  17.4 °C 29.9 in /  1013.8 hPa SW 2 mph /  3.2 km/h 5 mph /  8.0 km/h 58 % 0 in /  0.0 mm
16:42 90 °F /  32.2 °C 65.1 °F /  18.4 °C 29.9 in /  1013.8 hPa WSW 8.1 mph /  13.0 km/h 8.1 mph /  13.0 km/h 44 % 0 in /  0.0 mm
16:47 89.4 °F /  31.9 °C 64.6 °F /  18.1 °C 29.9 in /  1012.8 hPa West 5.8 mph /  9.3 km/h 5.8 mph /  9.3 km/h 44 % 0 in /  0.0 mm
16:50 78.8 °F /  26.0 °C 63.3 °F /  17.4 °C 29.9 in /  1013.8 hPa SW 3 mph /  4.8 km/h 4 mph /  6.4 km/h 59 % 0 in /  0.0 mm
16:52 89.6 °F /  32.0 °C 65.5 °F /  18.6 °C 29.9 in /  1012.8 hPa SW 9.2 mph /  14.8 km/h 9.2 mph /  14.8 km/h 45 % 0 in /  0.0 mm
16:57 88.9 °F /  31.6 °C 64.8 °F /  18.2 °C 29.9 in /  1012.8 hPa South 10.5 mph /  16.9 km/h 10.5 mph /  16.9 km/h 45 % 0 in /  0.0 mm
17:02 89.1 °F /  31.7 °C 65.7 °F /  18.7 °C 29.9 in /  1012.8 hPa West 11.5 mph /  18.5 km/h 11.5 mph /  18.5 km/h 46 % 0 in /  0.0 mm
17:07 88.3 °F /  31.3 °C 64.9 °F /  18.3 °C 29.9 in /  1012.8 hPa West 9.2 mph /  14.8 km/h 9.2 mph /  14.8 km/h 46 % 0 in /  0.0 mm
17:12 87.3 °F /  30.7 °C 64.6 °F /  18.1 °C 29.9 in /  1012.8 hPa SW 10.4 mph /  16.7 km/h 10.4 mph /  16.7 km/h 47 % 0 in /  0.0 mm
17:17 87.6 °F /  30.9 °C 65.5 °F /  18.6 °C 29.9 in /  1013.8 hPa SW 6.2 mph /  10.0 km/h 6.2 mph /  10.0 km/h 48 % 0 in /  0.0 mm
17:22 87.3 °F /  30.7 °C 65.1 °F /  18.4 °C 29.9 in /  1013.8 hPa SW 8.1 mph /  13.0 km/h 8.1 mph /  13.0 km/h 48 % 0 in /  0.0 mm
17:27 86.4 °F /  30.2 °C 64.4 °F /  18.0 °C 29.9 in /  1013.8 hPa SSW 12.7 mph /  20.4 km/h 12.7 mph /  20.4 km/h 48 % 0 in /  0.0 mm
17:32 86.4 °F /  30.2 °C 64.4 °F /  18.0 °C 29.9 in /  1013.8 hPa South 11.5 mph /  18.5 km/h 11.5 mph /  18.5 km/h 48 % 0 in /  0.0 mm
17:37 86 °F /  30.0 °C 64.6 °F /  18.1 °C 29.9 in /  1013.8 hPa West 8.1 mph /  13.0 km/h 8.1 mph /  13.0 km/h 49 % 0 in /  0.0 mm
17:42 86 °F /  30.0 °C 64 °F /  17.8 °C 29.9 in /  1013.8 hPa SW 10.4 mph /  16.7 km/h 10.4 mph /  16.7 km/h 48 % 0 in /  0.0 mm
17:47 86.2 °F /  30.1 °C 64.2 °F /  17.9 °C 29.9 in /  1013.8 hPa SW 8.1 mph /  13.0 km/h 8.1 mph /  13.0 km/h 48 % 0 in /  0.0 mm
17:52 85.8 °F /  29.9 °C 63.9 °F /  17.7 °C 29.9 in /  1013.8 hPa SSW 9.2 mph /  14.8 km/h 9.2 mph /  14.8 km/h 48 % 0 in /  0.0 mm
17:57 85.3 °F /  29.6 °C 64 °F /  17.8 °C 29.9 in /  1013.8 hPa SW 6.2 mph /  10.0 km/h 6.2 mph /  10.0 km/h 49 % 0 in /  0.0 mm
18:02 85.3 °F /  29.6 °C 64 °F /  17.8 °C 29.9 in /  1013.8 hPa WSW 5.8 mph /  9.3 km/h 5.8 mph /  9.3 km/h 49 % 0 in /  0.0 mm
18:07 84.9 °F /  29.4 °C 63.7 °F /  17.6 °C 29.9 in /  1013.8 hPa SW 11.5 mph /  18.5 km/h 11.5 mph /  18.5 km/h 49 % 0 in /  0.0 mm
18:12 84.6 °F /  29.2 °C 63.9 °F /  17.7 °C 29.9 in /  1013.8 hPa South 10.4 mph /  16.7 km/h 10.4 mph /  16.7 km/h 50 % 0 in /  0.0 mm
18:17 84.6 °F /  29.2 °C 63.9 °F /  17.7 °C 29.9 in /  1013.8 hPa SSW 8.1 mph /  13.0 km/h 8.1 mph /  13.0 km/h 50 % 0 in /  0.0 mm
18:22 84.7 °F /  29.3 °C 64.6 °F /  18.1 °C 29.9 in /  1013.8 hPa SW 4.6 mph /  7.4 km/h 4.6 mph /  7.4 km/h 51 % 0 in /  0.0 mm
18:27 84.7 °F /  29.3 °C 64.6 °F /  18.1 °C 29.9 in /  1013.8 hPa SW 5.8 mph /  9.3 km/h 5.8 mph /  9.3 km/h 51 % 0 in /  0.0 mm
18:32 84.7 °F /  29.3 °C 64.6 °F /  18.1 °C 29.9 in /  1013.8 hPa SSE 5.8 mph /  9.3 km/h 5.8 mph /  9.3 km/h 51 % 0 in /  0.0 mm
18:37 84.4 °F /  29.1 °C 64.8 °F /  18.2 °C 29.9 in /  1013.8 hPa WSW 6.9 mph /  11.1 km/h 6.9 mph /  11.1 km/h 52 % 0 in /  0.0 mm
18:42 83.8 °F /  28.8 °C 64.9 °F /  18.3 °C 29.9 in /  1013.8 hPa South 9.2 mph /  14.8 km/h 9.2 mph /  14.8 km/h 53 % 0 in /  0.0 mm
18:47 83.5 °F /  28.6 °C 64.6 °F /  18.1 °C 29.9 in /  1013.8 hPa SW 6.9 mph /  11.1 km/h 6.9 mph /  11.1 km/h 53 % 0 in /  0.0 mm
18:52 83.3 °F /  28.5 °C 64.4 °F /  18.0 °C 29.9 in /  1013.8 hPa SW 12.7 mph /  20.4 km/h 12.7 mph /  20.4 km/h 53 % 0 in /  0.0 mm
18:57 83.1 °F /  28.4 °C 64.8 °F /  18.2 °C 29.9 in /  1013.8 hPa South 4.6 mph /  7.4 km/h 4.6 mph /  7.4 km/h 54 % 0 in /  0.0 mm
19:02 83.8 °F /  28.8 °C 65.5 °F /  18.6 °C 29.9 in /  1013.8 hPa SW 4.6 mph /  7.4 km/h 4.6 mph /  7.4 km/h 54 % 0 in /  0.0 mm
19:07 84.4 °F /  29.1 °C 65.5 °F /  18.6 °C 29.9 in /  1013.8 hPa SW 4.6 mph /  7.4 km/h 4.6 mph /  7.4 km/h 53 % 0 in /  0.0 mm
19:12 84 °F /  28.9 °C 65.7 °F /  18.7 °C 29.9 in /  1013.8 hPa West 6.9 mph /  11.1 km/h 6.9 mph /  11.1 km/h 54 % 0 in /  0.0 mm
19:17 84 °F /  28.9 °C 65.7 °F /  18.7 °C 29.9 in /  1013.8 hPa SSW 10.4 mph /  16.7 km/h 10.4 mph /  16.7 km/h 54 % 0 in /  0.0 mm
19:22 84 °F /  28.9 °C 65.7 °F /  18.7 °C 29.9 in /  1013.8 hPa SSW 6.9 mph /  11.1 km/h 6.9 mph /  11.1 km/h 54 % 0 in /  0.0 mm
19:27 84.2 °F /  29.0 °C 65.1 °F /  18.4 °C 29.9 in /  1013.8 hPa SSW 8.1 mph /  13.0 km/h 8.1 mph /  13.0 km/h 53 % 0 in /  0.0 mm
19:32 84.2 °F /  29.0 °C 65.8 °F /  18.8 °C 29.9 in /  1013.8 hPa SW 6.2 mph /  10.0 km/h 6.2 mph /  10.0 km/h 54 % 0 in /  0.0 mm
19:37 83.5 °F /  28.6 °C 65.7 °F /  18.7 °C 29.9 in /  1013.8 hPa SSW 6.9 mph /  11.1 km/h 6.9 mph /  11.1 km/h 55 % 0 in /  0.0 mm
19:42 83.7 °F /  28.7 °C 65.8 °F /  18.8 °C 29.9 in /  1013.8 hPa SW 5.4 mph /  8.7 km/h 5.4 mph /  8.7 km/h 55 % 0 in /  0.0 mm
19:48 83.5 °F /  28.6 °C 65.1 °F /  18.4 °C 29.9 in /  1013.8 hPa SW 6.2 mph /  10.0 km/h 6.2 mph /  10.0 km/h 54 % 0 in /  0.0 mm
19:53 83.3 °F /  28.5 °C 64.9 °F /  18.3 °C 29.9 in /  1013.8 hPa SW 5.4 mph /  8.7 km/h 5.4 mph /  8.7 km/h 54 % 0 in /  0.0 mm
19:58 83.1 °F /  28.4 °C 65.3 °F /  18.5 °C 29.9 in /  1012.8 hPa WSW 6.9 mph /  11.1 km/h 6.9 mph /  11.1 km/h 55 % 0 in /  0.0 mm
20:03 82.6 °F /  28.1 °C 64.8 °F /  18.2 °C 29.9 in /  1012.8 hPa SW 5.8 mph /  9.3 km/h 5.8 mph /  9.3 km/h 55 % 0 in /  0.0 mm
20:08 82.6 °F /  28.1 °C 65.3 °F /  18.5 °C 29.9 in /  1012.8 hPa SW 4.6 mph /  7.4 km/h 4.6 mph /  7.4 km/h 56 % 0 in /  0.0 mm
20:13 82.6 °F /  28.1 °C 64.8 °F /  18.2 °C 29.9 in /  1012.8 hPa SSW 5.8 mph /  9.3 km/h 5.8 mph /  9.3 km/h 55 % 0 in /  0.0 mm
20:18 82.4 °F /  28.0 °C 64.6 °F /  18.1 °C 29.9 in /  1013.8 hPa WSW 5.8 mph /  9.3 km/h 5.8 mph /  9.3 km/h 55 % 0 in /  0.0 mm
20:23 82 °F /  27.8 °C 64.8 °F /  18.2 °C 29.9 in /  1013.8 hPa WNW 5.8 mph /  9.3 km/h 5.8 mph /  9.3 km/h 56 % 0 in /  0.0 mm
20:28 81.9 °F /  27.7 °C 64.6 °F /  18.1 °C 29.9 in /  1012.8 hPa West 5.6 mph /  9.0 km/h 5.6 mph /  9.0 km/h 56 % 0 in /  0.0 mm
20:33 81.7 °F /  27.6 °C 64.6 °F /  18.1 °C 29.9 in /  1012.8 hPa WSW 5.8 mph /  9.3 km/h 5.8 mph /  9.3 km/h 56 % 0 in /  0.0 mm
20:38 81.5 °F /  27.5 °C 64.2 °F /  17.9 °C 29.9 in /  1012.8 hPa SW 4.6 mph /  7.4 km/h 4.6 mph /  7.4 km/h 56 % 0 in /  0.0 mm
20:43 81.5 °F /  27.5 °C 63.9 °F /  17.7 °C 29.9 in /  1012.8 hPa SW 4.6 mph /  7.4 km/h 4.6 mph /  7.4 km/h 55 % 0 in /  0.0 mm
20:48 81.5 °F /  27.5 °C 63.9 °F /  17.7 °C 29.9 in /  1012.8 hPa SW 3.5 mph /  5.6 km/h 3.5 mph /  5.6 km/h 55 % 0 in /  0.0 mm
20:53 81.3 °F /  27.4 °C 63.7 °F /  17.6 °C 29.9 in /  1012.8 hPa SSW 2.6 mph /  4.2 km/h 2.6 mph /  4.2 km/h 55 % 0 in /  0.0 mm
20:58 81.1 °F /  27.3 °C 63.3 °F /  17.4 °C 29.9 in /  1012.8 hPa SSW 2.3 mph /  3.7 km/h 2.3 mph /  3.7 km/h 55 % 0 in /  0.0 mm
21:03 81 °F /  27.2 °C 63.3 °F /  17.4 °C 29.9 in /  1012.8 hPa SW 3.5 mph /  5.6 km/h 3.5 mph /  5.6 km/h 55 % 0 in /  0.0 mm
21:08 80.8 °F /  27.1 °C 63.1 °F /  17.3 °C 29.9 in /  1012.8 hPa SW 3.6 mph /  5.8 km/h 3.6 mph /  5.8 km/h 55 % 0 in /  0.0 mm
21:13 80.6 °F /  27.0 °C 63 °F /  17.2 °C 29.9 in /  1012.8 hPa SW 4.6 mph /  7.4 km/h 4.6 mph /  7.4 km/h 55 % 0 in /  0.0 mm
21:18 80.4 °F /  26.9 °C 63.3 °F /  17.4 °C 29.9 in /  1012.8 hPa SW 5.8 mph /  9.3 km/h 5.8 mph /  9.3 km/h 56 % 0 in /  0.0 mm
22:00 78.1 °F /  25.6 °C 63.5 °F /  17.5 °C 29.9 in /  1013.8 hPa SW 3.5 mph /  5.6 km/h 3.5 mph /  5.6 km/h 61 % 0 in /  0.0 mm
22:05 77.5 °F /  25.3 °C 63 °F /  17.2 °C 29.9 in /  1013.8 hPa SW 3.5 mph /  5.6 km/h 3.5 mph /  5.6 km/h 61 % 0 in /  0.0 mm
22:10 77.2 °F /  25.1 °C 63.1 °F /  17.3 °C 29.9 in /  1013.8 hPa WSW 4.6 mph /  7.4 km/h 4.6 mph /  7.4 km/h 62 % 0 in /  0.0 mm
22:15 77 °F /  25.0 °C 63 °F /  17.2 °C 29.9 in /  1012.8 hPa WSW 4.6 mph /  7.4 km/h 4.6 mph /  7.4 km/h 62 % 0 in /  0.0 mm
22:20 76.6 °F /  24.8 °C 63.1 °F /  17.3 °C 29.9 in /  1012.8 hPa WSW 4.6 mph /  7.4 km/h 4.6 mph /  7.4 km/h 63 % 0 in /  0.0 mm
22:25 76.5 °F /  24.7 °C 63.3 °F /  17.4 °C 29.9 in /  1012.8 hPa WSW 6.4 mph /  10.3 km/h 6.4 mph /  10.3 km/h 64 % 0 in /  0.0 mm
22:30 76.3 °F /  24.6 °C 63.1 °F /  17.3 °C 29.9 in /  1013.8 hPa SW 5.8 mph /  9.3 km/h 5.8 mph /  9.3 km/h 64 % 0 in /  0.0 mm
22:35 75.9 °F /  24.4 °C 63.3 °F /  17.4 °C 29.9 in /  1013.8 hPa SW 3 mph /  4.8 km/h 7 mph /  11.3 km/h 65 % 0 in /  0.0 mm
22:40 75.7 °F /  24.3 °C 63.1 °F /  17.3 °C 29.9 in /  1013.8 hPa SW 3 mph /  4.8 km/h 7 mph /  11.3 km/h 65 % 0 in /  0.0 mm
22:45 75.6 °F /  24.2 °C 63.3 °F /  17.4 °C 29.9 in /  1013.8 hPa SW 3 mph /  4.8 km/h 6 mph /  9.7 km/h 66 % 0 in /  0.0 mm
22:50 75.4 °F /  24.1 °C 63.1 °F /  17.3 °C 29.9 in /  1013.8 hPa SW 2 mph /  3.2 km/h 6 mph /  9.7 km/h 66 % 0 in /  0.0 mm
22:55 75.2 °F /  24.0 °C 63.5 °F /  17.5 °C 29.9 in /  1013.8 hPa SW 2 mph /  3.2 km/h 6 mph /  9.7 km/h 67 % 0 in /  0.0 mm
23:00 75.2 °F /  24.0 °C 63.5 °F /  17.5 °C 30 in /  1014.8 hPa SW 2 mph /  3.2 km/h 5 mph /  8.0 km/h 67 % 0 in /  0.0 mm
23:05 75 °F /  23.9 °C 63.7 °F /  17.6 °C 30 in /  1014.8 hPa SW 2 mph /  3.2 km/h 5 mph /  8.0 km/h 68 % 0 in /  0.0 mm
23:10 74.8 °F /  23.8 °C 63.7 °F /  17.6 °C 30 in /  1014.8 hPa SW 2 mph /  3.2 km/h 3 mph /  4.8 km/h 68 % 0 in /  0.0 mm
23:15 74.7 °F /  23.7 °C 63.9 °F /  17.7 °C 30 in /  1014.8 hPa SW 5.8 mph /  9.3 km/h 5.8 mph /  9.3 km/h 69 % 0 in /  0.0 mm
23:20 74.7 °F /  23.7 °C 63.9 °F /  17.7 °C 30 in /  1014.8 hPa SW 2.3 mph /  3.7 km/h 2.3 mph /  3.7 km/h 69 % 0 in /  0.0 mm
23:22 74.5 °F /  23.6 °C 63.7 °F /  17.6 °C 30 in /  1014.8 hPa SW 2.3 mph /  3.7 km/h 2.3 mph /  3.7 km/h 69 % 0 in /  0.0 mm
23:27 74.5 °F /  23.6 °C 63.7 °F /  17.6 °C 30 in /  1014.8 hPa WSW 3.5 mph /  5.6 km/h 3.5 mph /  5.6 km/h 69 % 0 in /  0.0 mm
23:32 74.3 °F /  23.5 °C 63.5 °F /  17.5 °C 30 in /  1014.8 hPa SW 3.5 mph /  5.6 km/h 3.5 mph /  5.6 km/h 69 % 0 in /  0.0 mm
23:37 74.3 °F /  23.5 °C 63.9 °F /  17.7 °C 30 in /  1014.8 hPa SW 2.3 mph /  3.7 km/h 2.3 mph /  3.7 km/h 70 % 0 in /  0.0 mm
23:42 74.1 °F /  23.4 °C 63.7 °F /  17.6 °C 30 in /  1014.8 hPa WSW 2.3 mph /  3.7 km/h 2.3 mph /  3.7 km/h 70 % 0 in /  0.0 mm
23:47 74.1 °F /  23.4 °C 63.7 °F /  17.6 °C 30 in /  1014.8 hPa SW 1.2 mph /  1.9 km/h   70 % 0 in /  0.0 mm
23:52 74.1 °F /  23.4 °C 63.7 °F /  17.6 °C 30 in /  1014.8 hPa SW 2.3 mph /  3.7 km/h 2.3 mph /  3.7 km/h 70 % 0 in /  0.0 mm
23:57 73.9 °F /  23.3 °C 63.9 °F /  17.7 °C 30 in /  1014.8 hPa WSW 1.6 mph /  2.6 km/h   71 % 0 in /  0.0 mm
Meteo Sesrovires
Elogis d' Weather Underground - 3.5 mb

Guio original per  Jim McMurry - jmcmurry@mwt.net Adaptat per a la plantilla per  Wim van der Kuil - Leuven-Template.eu

Trobareu la nostra informacio del temps tambe a:

Weather Underground

AWEKAS